»·PEaware :: N788AL KSBD-KEMT

N788AL :: KSBD-KEMT

FLIGHT INFORMATION

Flight Status: Arrived
Operator: Privately registered:
United States
More flights under this callsign
Pilot: Armen M. (22776)
Aircraft: CESSNA 172 SKYHAWK
(C172)
More flights by this aircraft type
Origin: KSBD San Bernardino Intl
United States
Destination: KEMT El Monte
United States
More flights between these airports :: More routes between these airports
Route:
File this flight plan on PilotEdge
Remarks: CAT 7
Altitude:
(Current/Filed)
6,500ft
Speed:
(Current/Filed)
110kts
Departed: 11-Feb-19 02:33 PM
Arrived: 11-Feb-19 03:43 PM
Distance/Time
Traveled:
40nm/1:10
Distance/Time
To Go:
Arrived

Flight Plot

Page will automatically refresh every two minutes.


Map Options




Map Legend


Flown Route
Filed Route
Departure Airport
Arrival Airport
Navaid (VOR, NDB)
Fix

Horizontal Profiles

Position Reports

Time Latitude Longitude Heading Altitude Ground
Speed
11-Feb-19 14:19 34.101622 -117.224714 108 1161ft 0kts
11-Feb-19 14:20 34.101622 -117.224714 108 1161ft 0kts
11-Feb-19 14:21 34.101622 -117.224714 108 1161ft 0kts
11-Feb-19 14:22 34.101622 -117.224714 108 1161ft 0kts
11-Feb-19 14:23 34.101622 -117.224714 108 1161ft 0kts
11-Feb-19 14:24 34.101622 -117.224714 108 1161ft 0kts
11-Feb-19 14:25 34.101601 -117.224674 134 1161ft 2kts
11-Feb-19 14:26 34.100821 -117.225050 251 1161ft 11kts
11-Feb-19 14:27 34.100286 -117.226889 238 1161ft 0kts
11-Feb-19 14:28 34.100286 -117.226889 238 1161ft 0kts
11-Feb-19 14:29 34.100285 -117.226889 238 1161ft 0kts
11-Feb-19 14:30 34.098994 -117.228645 248 1161ft 26kts
11-Feb-19 14:31 34.097167 -117.234761 250 1161ft 36kts
11-Feb-19 14:32 34.095065 -117.241900 250 1161ft 53kts
11-Feb-19 14:33 34.092493 -117.250602 248 1161ft 26kts
11-Feb-19 14:34 34.091939 -117.251397 154 1161ft 0kts
11-Feb-19 14:35 34.091939 -117.251397 154 1161ft 0kts
11-Feb-19 14:36 34.091875 -117.251102 103 1161ft 5kts
11-Feb-19 14:37 34.091751 -117.250881 153 1161ft 0kts
11-Feb-19 14:38 34.090918 -117.249696 81 1161ft 14kts
11-Feb-19 14:39 34.093199 -117.241741 69 1310ft 74kts
11-Feb-19 14:40 34.098484 -117.230097 60 1832ft 76kts
11-Feb-19 14:41 34.095788 -117.217867 161 2381ft 77kts
11-Feb-19 14:42 34.085772 -117.219037 237 2883ft 77kts
11-Feb-19 14:43 34.081628 -117.232265 244 3400ft 71kts
11-Feb-19 14:44 34.078528 -117.244376 269 3831ft 76kts
11-Feb-19 14:45 34.080864 -117.257633 299 4302ft 73kts
11-Feb-19 14:46 34.086272 -117.270457 290 4523ft 95kts
11-Feb-19 14:47 34.089358 -117.287619 277 4606ft 111kts
11-Feb-19 14:48 34.091677 -117.304850 281 4731ft 106kts
11-Feb-19 14:49 34.094998 -117.322898 279 4703ft 112kts
11-Feb-19 14:50 34.096803 -117.341608 277 4608ft 113kts
11-Feb-19 14:51 34.097575 -117.360595 271 4457ft 113kts
11-Feb-19 14:52 34.097989 -117.379615 271 4418ft 110kts
11-Feb-19 14:53 34.098574 -117.398651 272 4459ft 109kts
11-Feb-19 14:54 34.099292 -117.417747 273 4453ft 109kts
11-Feb-19 14:55 34.099844 -117.437278 271 4370ft 110kts
11-Feb-19 14:56 34.099649 -117.456556 269 4372ft 108kts
11-Feb-19 14:57 34.099650 -117.476141 270 4333ft 109kts
11-Feb-19 14:58 34.099604 -117.495630 271 4305ft 110kts
11-Feb-19 14:59 34.100498 -117.514917 275 4284ft 110kts
11-Feb-19 15:00 34.101837 -117.534547 275 4267ft 109kts
11-Feb-19 15:01 34.103218 -117.553880 273 4292ft 109kts
11-Feb-19 15:02 34.103995 -117.573228 274 4365ft 108kts
11-Feb-19 15:03 34.105409 -117.592215 273 4413ft 108kts
11-Feb-19 15:04 34.105030 -117.611011 268 4465ft 108kts
11-Feb-19 15:05 34.103552 -117.629145 262 4436ft 109kts
11-Feb-19 15:06 34.101782 -117.647859 264 4421ft 109kts
11-Feb-19 15:08 34.099784 -117.664878 261 4400ft 111kts
11-Feb-19 15:09 34.097406 -117.683959 262 4448ft 109kts
11-Feb-19 15:10 34.095789 -117.702875 265 4451ft 110kts
11-Feb-19 15:11 34.095578 -117.721113 272 4286ft 97kts
11-Feb-19 15:12 34.096647 -117.737317 276 4242ft 81kts
11-Feb-19 15:13 34.097145 -117.751673 277 4354ft 59kts
11-Feb-19 15:14 34.104053 -117.765563 309 4302ft 115kts
11-Feb-19 15:15 34.118580 -117.778754 343 4267ft 111kts
11-Feb-19 15:16 34.131004 -117.765729 67 4198ft 110kts
11-Feb-19 15:17 34.134034 -117.746349 109 4395ft 112kts
11-Feb-19 15:18 34.126512 -117.728993 131 4465ft 112kts
11-Feb-19 15:19 34.114316 -117.730436 248 3883ft 108kts
11-Feb-19 15:20 34.108342 -117.748785 251 3006ft 112kts
11-Feb-19 15:21 34.104643 -117.765600 259 2986ft 107kts
11-Feb-19 15:22 34.101473 -117.783518 251 3218ft 113kts
11-Feb-19 15:23 34.095405 -117.800956 242 3496ft 111kts
11-Feb-19 15:24 34.089822 -117.820002 255 3583ft 122kts
11-Feb-19 15:25 34.086539 -117.838814 262 3750ft 110kts
11-Feb-19 15:26 34.085593 -117.857253 270 3645ft 107kts
11-Feb-19 15:27 34.086584 -117.875468 277 3492ft 107kts
11-Feb-19 15:28 34.089060 -117.893101 280 3132ft 108kts
11-Feb-19 15:29 34.091528 -117.909676 284 2666ft 103kts
11-Feb-19 15:29 34.094231 -117.922427 277 2305ft 97kts
11-Feb-19 15:30 34.095975 -117.938154 279 1755ft 98kts
11-Feb-19 15:31 34.097873 -117.951762 276 1844ft 88kts
11-Feb-19 15:33 34.099381 -117.968443 275 2099ft 95kts
11-Feb-19 15:33 34.100246 -117.980259 267 2194ft 102kts
11-Feb-19 15:34 34.103174 -117.995943 316 2052ft 112kts
11-Feb-19 15:35 34.116742 -118.001433 330 1918ft 78kts
11-Feb-19 15:36 34.122513 -118.010426 281 1552ft 79kts
11-Feb-19 15:37 34.117272 -118.018084 210 1153ft 71kts
11-Feb-19 15:38 34.109633 -118.021780 200 920ft 71kts
11-Feb-19 15:39 34.102924 -118.025346 204 751ft 67kts
11-Feb-19 15:40 34.095431 -118.029395 204 502ft 70kts
11-Feb-19 15:41 34.088391 -118.033407 202 299ft 41kts
11-Feb-19 15:42 34.084869 -118.034234 140 299ft 18kts
11-Feb-19 15:43 34.084108 -118.032983 208 299ft 3kts
11-Feb-19 15:44 34.083825 -118.033213 201 299ft 0kts
11-Feb-19 15:45 34.083825 -118.033213 201 299ft 0kts
11-Feb-19 15:46 34.083825 -118.033213 201 299ft 0kts
11-Feb-19 15:47 34.083825 -118.033213 201 299ft 0kts

Navigation Log

Ident Type
Flight plan parsing failed, navigation log unavailable